createdAt,value
2022-10-31T00:01:12.257Z,4.70
2022-10-31T00:03:40.610Z,4.18
2022-10-31T00:06:09.220Z,4.40
2022-10-31T00:08:37.528Z,4.38
2022-10-31T00:11:09.943Z,4.78
2022-10-31T00:13:39.913Z,4.38
2022-10-31T00:16:15.995Z,4.75
2022-10-31T00:18:44.440Z,4.57
2022-10-31T00:21:12.886Z,4.88
2022-10-31T00:23:41.344Z,4.47
2022-10-31T00:26:09.809Z,4.50
2022-10-31T00:28:39.621Z,4.90
2022-10-31T00:31:10.121Z,4.70
2022-10-31T00:33:39.832Z,4.93
2022-10-31T00:36:09.970Z,4.22
2022-10-31T00:38:38.575Z,4.30
2022-10-31T00:41:07.061Z,4.50
2022-10-31T00:43:35.401Z,4.60
2022-10-31T00:46:05.262Z,5.00
2022-10-31T00:48:33.634Z,4.50
2022-10-31T00:51:01.980Z,4.55
2022-10-31T00:53:30.332Z,4.45
2022-10-31T00:55:58.847Z,4.75
2022-10-31T00:58:27.529Z,4.72
2022-10-31T01:00:56.884Z,4.45
2022-10-31T01:03:29.107Z,4.60
2022-10-31T01:06:01.610Z,4.80
2022-10-31T01:08:30.429Z,5.05
2022-10-31T01:11:05.083Z,4.97
2022-10-31T01:16:06.076Z,5.18
2022-10-31T01:18:36.463Z,4.55
2022-10-31T01:21:07.072Z,4.75
2022-10-31T01:23:35.478Z,5.15
2022-10-31T01:26:06.579Z,4.63
2022-10-31T01:28:35.746Z,4.63
2022-10-31T01:31:07.088Z,5.03
2022-10-31T01:33:38.676Z,4.82
2022-10-31T01:36:18.489Z,5.47
2022-10-31T01:38:47.421Z,4.90
2022-10-31T01:41:18.763Z,5.00
2022-10-31T01:43:50.527Z,5.15
2022-10-31T01:46:23.967Z,5.20
2022-10-31T01:48:55.663Z,5.13
2022-10-31T01:51:30.666Z,5.35
2022-10-31T01:54:03.416Z,5.40
2022-10-31T01:56:33.047Z,5.15
2022-10-31T01:59:03.054Z,6.03
2022-10-31T02:01:31.715Z,4.88
2022-10-31T02:04:01.599Z,5.38
2022-10-31T02:06:38.090Z,5.25
2022-10-31T02:09:07.825Z,5.68
2022-10-31T02:11:38.111Z,5.82
2022-10-31T02:14:06.611Z,5.15
2022-10-31T02:16:35.380Z,5.82
2022-10-31T02:19:10.836Z,5.45
2022-10-31T02:21:47.079Z,5.68
2022-10-31T02:24:54.314Z,5.68
2022-10-31T02:27:48.908Z,5.70
2022-10-31T02:30:20.800Z,5.75
2022-10-31T02:33:09.815Z,5.38
2022-10-31T02:35:49.691Z,5.18
2022-10-31T02:38:37.522Z,5.22
2022-10-31T02:41:16.482Z,5.05
2022-10-31T02:44:03.120Z,5.13
2022-10-31T02:46:36.511Z,5.85
2022-10-31T02:51:41.469Z,4.93
2022-10-31T02:54:20.076Z,5.32
2022-10-31T02:56:54.987Z,5.38
2022-10-31T02:59:24.443Z,5.82
2022-10-31T03:02:31.396Z,4.78
2022-10-31T03:05:16.596Z,5.25
2022-10-31T03:07:53.062Z,5.63
2022-10-31T03:10:33.545Z,5.38
2022-10-31T03:13:10.253Z,5.05
2022-10-31T03:15:43.229Z,5.63
2022-10-31T03:18:17.700Z,5.78
2022-10-31T03:20:55.464Z,5.30
2022-10-31T03:23:26.505Z,5.80
2022-10-31T03:25:56.738Z,5.72
2022-10-31T03:28:31.542Z,5.55
2022-10-31T03:31:04.743Z,4.93
2022-10-31T03:33:40.278Z,5.65
2022-10-31T03:36:12.584Z,5.38
2022-10-31T03:38:43.065Z,5.03
2022-10-31T03:41:16.118Z,5.20
2022-10-31T03:43:54.357Z,5.30
2022-10-31T03:46:23.846Z,5.82
2022-10-31T03:48:52.997Z,5.95
2022-10-31T03:51:28.667Z,5.50
2022-10-31T03:54:01.851Z,5.72
2022-10-31T03:56:37.299Z,6.22
2022-10-31T03:59:12.545Z,5.47
2022-10-31T04:01:47.055Z,5.50
2022-10-31T04:04:16.695Z,6.10
2022-10-31T04:06:49.382Z,5.97
2022-10-31T04:09:19.694Z,6.40
2022-10-31T04:11:53.029Z,5.05
2022-10-31T04:14:43.018Z,5.53
2022-10-31T04:17:16.041Z,5.30
2022-10-31T04:19:45.269Z,5.63
2022-10-31T04:22:15.467Z,5.57
2022-10-31T04:24:43.808Z,6.60
2022-10-31T04:27:15.951Z,6.13
2022-10-31T04:29:46.911Z,5.60
2022-10-31T04:32:18.680Z,6.50
2022-10-31T04:34:47.045Z,5.95
2022-10-31T04:37:16.941Z,5.47
2022-10-31T04:39:45.510Z,6.20
2022-10-31T04:42:33.257Z,5.60
2022-10-31T04:45:05.385Z,6.32
2022-10-31T04:47:35.699Z,5.78
2022-10-31T04:50:04.824Z,5.85
2022-10-31T04:52:41.496Z,5.40
2022-10-31T04:55:12.273Z,5.57
2022-10-31T04:57:52.675Z,5.45
2022-10-31T05:00:23.538Z,6.93
2022-10-31T05:02:54.490Z,6.60
2022-10-31T05:05:25.371Z,6.53
2022-10-31T05:07:55.587Z,6.72
2022-10-31T05:10:28.612Z,6.88
2022-10-31T05:13:02.583Z,6.95
2022-10-31T05:15:51.118Z,6.88
2022-10-31T05:18:28.361Z,7.35
2022-10-31T05:21:17.145Z,6.97
2022-10-31T05:23:51.261Z,6.45
2022-10-31T05:26:20.147Z,6.78
2022-10-31T05:28:49.509Z,6.80
2022-10-31T05:31:18.119Z,7.40
2022-10-31T05:33:46.606Z,7.43
2022-10-31T05:36:33.454Z,8.02
2022-10-31T05:39:06.770Z,8.38
2022-10-31T05:41:42.875Z,8.38
2022-10-31T05:44:31.495Z,8.30
2022-10-31T05:47:26.580Z,8.70
2022-10-31T05:49:57.845Z,8.15
2022-10-31T05:52:44.782Z,8.98
2022-10-31T05:55:26.478Z,8.32
2022-10-31T05:58:10.216Z,8.73
2022-10-31T06:00:40.560Z,9.02
2022-10-31T06:03:11.775Z,8.23
2022-10-31T06:05:50.637Z,8.73
2022-10-31T06:08:22.548Z,9.30
2022-10-31T06:10:53.995Z,8.27
2022-10-31T06:13:30.939Z,8.70
2022-10-31T06:16:04.157Z,8.38
2022-10-31T06:18:37.968Z,9.18
2022-10-31T06:21:06.707Z,8.93
2022-10-31T06:23:35.290Z,9.10
2022-10-31T06:26:23.462Z,8.18
2022-10-31T06:28:52.034Z,9.05
2022-10-31T06:31:40.368Z,8.15
2022-10-31T06:34:08.957Z,8.65
2022-10-31T06:36:37.488Z,9.10
2022-10-31T06:39:06.550Z,8.93
2022-10-31T06:41:37.525Z,9.05
2022-10-31T06:44:08.883Z,8.88
2022-10-31T06:47:03.684Z,8.63
2022-10-31T06:49:52.725Z,8.20
2022-10-31T06:52:25.260Z,9.20
2022-10-31T06:54:54.510Z,9.27
2022-10-31T06:57:26.345Z,9.30
2022-10-31T06:59:54.788Z,8.55
2022-10-31T07:02:41.901Z,11.07
2022-10-31T07:05:10.311Z,11.40
2022-10-31T07:07:38.656Z,11.50
2022-10-31T07:10:07.386Z,11.43
2022-10-31T07:15:25.963Z,11.07
2022-10-31T07:17:54.866Z,11.43
2022-10-31T07:20:23.676Z,10.55
2022-10-31T07:22:52.448Z,11.20
2022-10-31T07:25:21.264Z,11.20
2022-10-31T07:28:11.847Z,11.43
2022-10-31T07:30:40.792Z,11.18
2022-10-31T07:33:11.120Z,11.38
2022-10-31T07:36:11.261Z,11.38
2022-10-31T07:38:42.695Z,11.63
2022-10-31T07:41:11.423Z,11.75
2022-10-31T07:43:45.664Z,11.30
2022-10-31T07:46:14.086Z,11.70
2022-10-31T07:48:44.429Z,11.40
2022-10-31T07:51:31.603Z,11.18
2022-10-31T07:54:20.208Z,10.77
2022-10-31T07:56:49.772Z,11.65
2022-10-31T07:59:19.654Z,11.25
2022-10-31T08:01:47.978Z,10.50
2022-10-31T08:04:35.085Z,10.63
2022-10-31T08:07:22.249Z,10.43
2022-10-31T08:09:57.651Z,10.98
2022-10-31T08:12:30.497Z,11.05
2022-10-31T08:15:00.849Z,10.80
2022-10-31T08:17:30.506Z,10.98
2022-10-31T08:20:01.483Z,9.73
2022-10-31T08:22:34.326Z,10.65
2022-10-31T08:25:04.116Z,10.82
2022-10-31T08:27:32.716Z,9.93
2022-10-31T08:30:04.118Z,10.95
2022-10-31T08:32:34.367Z,10.63
2022-10-31T08:35:21.087Z,10.40
2022-10-31T08:38:18.728Z,10.80
2022-10-31T08:40:50.385Z,9.30
2022-10-31T08:43:20.018Z,10.23
2022-10-31T08:45:51.798Z,10.18
2022-10-31T08:48:26.334Z,9.10
2022-10-31T08:50:58.987Z,9.88
2022-10-31T08:53:28.802Z,9.40
2022-10-31T08:56:32.093Z,8.63
2022-10-31T08:59:02.467Z,7.95
2022-10-31T09:01:51.159Z,9.38
2022-10-31T09:04:20.311Z,8.50
2022-10-31T09:07:19.565Z,8.70
2022-10-31T09:09:37.161Z,8.10
2022-10-31T09:12:05.940Z,7.97
2022-10-31T09:14:53.085Z,8.35
2022-10-31T09:17:55.465Z,7.95
2022-10-31T09:20:53.187Z,7.82
2022-10-31T09:23:23.557Z,8.45
2022-10-31T09:25:55.021Z,8.65
2022-10-31T09:28:40.645Z,7.53
2022-10-31T09:31:11.670Z,7.38
2022-10-31T09:33:50.154Z,7.60
2022-10-31T09:36:37.704Z,7.35
2022-10-31T09:39:08.364Z,7.50
2022-10-31T09:42:03.622Z,7.32
2022-10-31T09:44:45.321Z,7.90
2022-10-31T09:47:35.810Z,7.43
2022-10-31T09:50:28.101Z,6.95
2022-10-31T09:53:02.966Z,21.23
2022-10-31T09:55:39.132Z,12.02
2022-10-31T09:58:16.508Z,8.10
2022-10-31T10:00:46.984Z,7.03
2022-10-31T10:03:32.888Z,6.85
2022-10-31T10:06:15.864Z,6.30
2022-10-31T10:09:12.807Z,6.03
2022-10-31T10:12:10.154Z,6.05
2022-10-31T10:14:49.987Z,5.72
2022-10-31T10:17:34.412Z,5.97
2022-10-31T10:20:30.364Z,5.60
2022-10-31T10:23:14.693Z,5.95
2022-10-31T10:25:45.011Z,5.28
2022-10-31T10:28:21.930Z,5.90
2022-10-31T10:30:55.318Z,7.28
2022-10-31T10:33:29.607Z,9.48
2022-10-31T10:36:01.551Z,16.23
2022-10-31T10:38:39.227Z,14.73
2022-10-31T10:41:17.418Z,13.30
2022-10-31T10:46:37.754Z,8.20
2022-10-31T10:49:14.276Z,6.88
2022-10-31T10:55:01.558Z,4.95
2022-10-31T10:57:40.696Z,4.68
2022-10-31T11:00:19.923Z,4.68
2022-10-31T11:02:49.343Z,5.20
2022-10-31T11:05:25.860Z,5.28
2022-10-31T11:07:54.318Z,4.40
2022-10-31T11:10:24.181Z,4.90
2022-10-31T11:13:16.751Z,4.38
2022-10-31T11:15:54.677Z,4.13
2022-10-31T11:18:26.609Z,4.78
2022-10-31T11:20:57.127Z,4.90
2022-10-31T11:23:27.496Z,5.43
2022-10-31T11:25:59.890Z,5.40
2022-10-31T11:28:30.335Z,6.53
2022-10-31T11:31:01.252Z,5.00
2022-10-31T11:33:34.285Z,9.38
2022-10-31T11:36:04.007Z,5.32
2022-10-31T11:38:36.952Z,4.45
2022-10-31T11:41:15.078Z,5.30
2022-10-31T11:43:50.570Z,5.15
2022-10-31T11:46:23.532Z,5.18
2022-10-31T11:48:55.824Z,5.57
2022-10-31T11:51:27.411Z,13.80
2022-10-31T11:54:02.731Z,17.13
2022-10-31T11:56:42.570Z,12.27
2022-10-31T11:59:20.670Z,10.95
2022-10-31T12:01:51.015Z,5.57
2022-10-31T12:04:19.867Z,4.82
2022-10-31T12:06:50.923Z,4.43
2022-10-31T12:09:24.101Z,4.57
2022-10-31T12:12:08.545Z,4.03
2022-10-31T12:14:51.655Z,4.60
2022-10-31T12:17:25.630Z,3.08
2022-10-31T12:20:04.919Z,2.60
2022-10-31T12:22:44.961Z,2.60
2022-10-31T12:25:30.123Z,2.83
2022-10-31T12:28:16.449Z,2.22
2022-10-31T12:30:59.948Z,2.13
2022-10-31T12:33:42.112Z,2.22
2022-10-31T12:36:23.084Z,2.20
2022-10-31T12:39:06.522Z,2.50
2022-10-31T12:41:53.159Z,2.20
2022-10-31T12:44:40.542Z,2.40
2022-10-31T12:47:33.215Z,2.25
2022-10-31T12:50:13.818Z,2.30
2022-10-31T12:52:53.619Z,2.25
2022-10-31T12:55:37.793Z,2.22
2022-10-31T12:58:12.184Z,2.25
2022-10-31T13:00:46.648Z,2.30
2022-10-31T13:03:27.732Z,2.30
2022-10-31T13:06:00.336Z,2.22
2022-10-31T13:08:36.318Z,2.38
2022-10-31T13:11:11.059Z,2.60
2022-10-31T13:13:45.596Z,2.00
2022-10-31T13:16:18.479Z,2.50
2022-10-31T13:18:50.423Z,2.50
2022-10-31T13:21:25.658Z,2.60
2022-10-31T13:23:57.233Z,2.50
2022-10-31T13:26:43.938Z,2.35
2022-10-31T13:29:20.352Z,2.35
2022-10-31T13:31:52.134Z,2.58
2022-10-31T13:34:30.741Z,2.75
2022-10-31T13:37:07.230Z,2.45
2022-10-31T13:40:05.423Z,2.75
2022-10-31T13:42:47.848Z,2.60
2022-10-31T13:45:18.372Z,2.63
2022-10-31T13:48:00.587Z,3.05
2022-10-31T13:50:30.831Z,2.55
2022-10-31T13:53:14.746Z,2.58
2022-10-31T13:55:45.120Z,2.78
2022-10-31T13:58:24.521Z,2.90
2022-10-31T14:01:19.190Z,2.80
2022-10-31T14:04:11.062Z,3.10
2022-10-31T14:06:53.375Z,2.60
2022-10-31T14:09:27.479Z,2.70
2022-10-31T14:11:58.530Z,2.80
2022-10-31T14:14:36.178Z,2.25
2022-10-31T14:17:05.055Z,2.30
2022-10-31T14:19:35.805Z,2.40
2022-10-31T14:22:04.258Z,2.50
2022-10-31T14:24:35.976Z,2.28
2022-10-31T14:27:26.831Z,2.55
2022-10-31T14:29:55.212Z,2.55
2022-10-31T14:32:25.204Z,2.40
2022-10-31T14:34:58.350Z,2.92
2022-10-31T14:37:41.719Z,2.80
2022-10-31T14:40:26.793Z,2.50
2022-10-31T14:43:29.308Z,2.58
2022-10-31T14:46:03.006Z,2.50
2022-10-31T14:48:58.352Z,2.28
2022-10-31T14:51:40.557Z,2.58
2022-10-31T14:54:15.685Z,2.75
2022-10-31T14:56:51.679Z,2.90
2022-10-31T14:59:24.427Z,3.05
2022-10-31T15:01:58.710Z,2.92
2022-10-31T15:04:30.258Z,3.30
2022-10-31T15:07:07.057Z,3.35
2022-10-31T15:09:37.699Z,2.10
2022-10-31T15:12:24.835Z,2.00
2022-10-31T15:14:54.196Z,2.05
2022-10-31T15:17:24.046Z,2.20
2022-10-31T15:19:53.624Z,2.30
2022-10-31T15:22:28.164Z,1.80
2022-10-31T15:24:58.112Z,2.33
2022-10-31T15:27:27.174Z,1.90
2022-10-31T15:29:57.921Z,2.10
2022-10-31T15:32:29.880Z,2.40
2022-10-31T15:34:59.121Z,2.05
2022-10-31T15:37:29.672Z,1.77
2022-10-31T15:40:16.280Z,2.03
2022-10-31T15:42:46.180Z,2.20
2022-10-31T15:45:21.456Z,2.60
2022-10-31T15:50:26.626Z,2.85
2022-10-31T15:52:57.810Z,3.65
2022-10-31T15:55:29.063Z,5.15
2022-10-31T15:58:00.673Z,3.88
2022-10-31T16:00:31.845Z,3.90
2022-10-31T16:03:08.032Z,4.07
2022-10-31T16:05:38.975Z,3.58
2022-10-31T16:08:27.733Z,4.30
2022-10-31T16:11:03.415Z,3.53
2022-10-31T16:13:36.935Z,2.78
2022-10-31T16:19:04.123Z,2.60
2022-10-31T16:21:37.173Z,2.72
2022-10-31T16:24:19.612Z,3.10
2022-10-31T16:26:53.374Z,2.90
2022-10-31T16:29:29.865Z,2.40
2022-10-31T16:31:58.310Z,2.15
2022-10-31T16:34:27.364Z,2.03
2022-10-31T16:36:55.976Z,2.38
2022-10-31T16:39:25.764Z,1.95
2022-10-31T16:41:56.990Z,2.10
2022-10-31T16:44:27.779Z,2.03
2022-10-31T16:47:12.259Z,2.20
2022-10-31T16:49:40.819Z,2.03
2022-10-31T16:52:09.218Z,2.05
2022-10-31T16:54:40.018Z,2.00
2022-10-31T16:57:16.849Z,2.20
2022-10-31T16:59:48.453Z,2.50
2022-10-31T17:02:18.515Z,2.25
2022-10-31T17:04:49.596Z,2.13
2022-10-31T17:07:20.609Z,2.47
2022-10-31T17:09:50.412Z,2.15
2022-10-31T17:12:20.700Z,2.28
2022-10-31T17:14:52.685Z,2.08
2022-10-31T17:17:21.175Z,2.42
2022-10-31T17:19:49.777Z,2.42
2022-10-31T17:22:18.331Z,2.15
2022-10-31T17:24:46.700Z,2.20
2022-10-31T17:27:16.368Z,2.65
2022-10-31T17:29:44.702Z,2.20
2022-10-31T17:32:13.057Z,2.35
2022-10-31T17:34:41.449Z,2.30
2022-10-31T17:37:12.352Z,2.50
2022-10-31T17:39:40.838Z,2.35
2022-10-31T17:42:09.208Z,2.42
2022-10-31T17:44:38.977Z,2.20
2022-10-31T17:47:07.766Z,2.33
2022-10-31T17:49:36.666Z,2.08
2022-10-31T17:52:05.777Z,2.30
2022-10-31T17:54:34.357Z,2.05
2022-10-31T17:57:02.899Z,2.42
2022-10-31T17:59:31.416Z,2.30
2022-10-31T18:02:01.884Z,2.45
2022-10-31T18:04:33.089Z,2.30
2022-10-31T18:07:01.572Z,2.30
2022-10-31T18:09:29.935Z,2.83
2022-10-31T18:11:58.668Z,2.35
2022-10-31T18:14:28.046Z,2.35
2022-10-31T18:16:56.369Z,2.47
2022-10-31T18:19:26.334Z,2.15
2022-10-31T18:21:54.807Z,2.00
2022-10-31T18:24:23.321Z,2.47
2022-10-31T18:26:52.320Z,2.80
2022-10-31T18:29:21.171Z,2.25
2022-10-31T18:31:51.260Z,2.20
2022-10-31T18:34:20.108Z,2.20
2022-10-31T18:36:50.265Z,2.38
2022-10-31T18:39:19.136Z,2.05
2022-10-31T18:41:47.604Z,2.28
2022-10-31T18:44:16.028Z,3.13
2022-10-31T18:46:44.527Z,2.03
2022-10-31T18:49:13.049Z,2.28
2022-10-31T18:51:41.458Z,2.67
2022-10-31T18:54:12.078Z,2.38
2022-10-31T18:56:40.510Z,2.50
2022-10-31T18:59:09.347Z,2.40
2022-10-31T19:01:37.882Z,2.10
2022-10-31T19:04:06.862Z,2.40
2022-10-31T19:06:37.335Z,2.25
2022-10-31T19:09:09.138Z,2.15
2022-10-31T19:11:40.392Z,2.50
2022-10-31T19:14:11.217Z,2.38
2022-10-31T19:16:39.731Z,2.53
2022-10-31T19:19:09.625Z,2.20
2022-10-31T19:21:38.225Z,2.40
2022-10-31T19:24:07.137Z,2.28
2022-10-31T19:26:35.819Z,2.60
2022-10-31T19:29:06.052Z,2.58
2022-10-31T19:31:34.437Z,2.40
2022-10-31T19:34:02.837Z,2.40
2022-10-31T19:36:31.279Z,2.50
2022-10-31T19:38:59.776Z,2.50
2022-10-31T19:41:29.862Z,2.88
2022-10-31T19:44:00.527Z,2.40
2022-10-31T19:49:18.771Z,2.83
2022-10-31T19:51:47.119Z,3.08
2022-10-31T19:54:15.728Z,2.65
2022-10-31T19:56:44.180Z,2.70
2022-10-31T19:59:12.670Z,3.10
2022-10-31T20:01:42.472Z,2.70
2022-10-31T20:04:11.208Z,2.55
2022-10-31T20:06:41.387Z,3.35
2022-10-31T20:09:13.687Z,2.58
2022-10-31T20:14:55.236Z,2.67
2022-10-31T20:17:25.054Z,2.53
2022-10-31T20:19:53.393Z,2.65
2022-10-31T20:22:21.972Z,2.83
2022-10-31T20:24:50.311Z,2.80
2022-10-31T20:27:18.708Z,2.80
2022-10-31T20:29:47.161Z,3.20
2022-10-31T20:32:15.589Z,2.72
2022-10-31T20:34:45.410Z,2.88
2022-10-31T20:37:14.163Z,2.83
2022-10-31T20:39:42.694Z,2.67
2022-10-31T20:42:11.217Z,2.60
2022-10-31T20:44:39.702Z,3.08
2022-10-31T20:47:08.170Z,2.53
2022-10-31T20:49:36.475Z,2.70
2022-10-31T20:52:06.481Z,2.88
2022-10-31T20:54:35.049Z,2.70
2022-10-31T20:57:03.409Z,3.15
2022-10-31T20:59:31.863Z,2.97
2022-10-31T21:02:00.414Z,2.95
2022-10-31T21:04:28.901Z,3.03
2022-10-31T21:06:59.347Z,2.90
2022-10-31T21:09:29.193Z,2.95
2022-10-31T21:11:57.642Z,3.08
2022-10-31T21:14:26.161Z,2.92
2022-10-31T21:16:54.548Z,2.70
2022-10-31T21:19:23.141Z,2.75
2022-10-31T21:21:51.517Z,2.85
2022-10-31T21:24:21.519Z,2.78
2022-10-31T21:26:53.022Z,3.20
2022-10-31T21:29:22.434Z,3.63
2022-10-31T21:31:51.246Z,2.80
2022-10-31T21:34:19.698Z,3.85
2022-10-31T21:36:48.236Z,2.90
2022-10-31T21:39:16.600Z,3.08
2022-10-31T21:41:45.082Z,2.60
2022-10-31T21:44:15.139Z,2.67
2022-10-31T21:46:44.959Z,2.70
2022-10-31T21:49:13.545Z,2.78
2022-10-31T21:51:43.524Z,2.70
2022-10-31T21:54:28.355Z,3.05
2022-10-31T21:56:57.647Z,2.40
2022-10-31T21:59:27.915Z,2.72
2022-10-31T22:01:58.111Z,2.90
2022-10-31T22:04:27.064Z,2.80
2022-10-31T22:06:55.599Z,2.60
2022-10-31T22:09:24.229Z,2.70
2022-10-31T22:11:52.761Z,2.60
2022-10-31T22:14:21.244Z,2.90
2022-10-31T22:16:50.919Z,2.80
2022-10-31T22:19:19.325Z,2.85
2022-10-31T22:21:49.093Z,3.15
2022-10-31T22:24:18.651Z,2.83
2022-10-31T22:26:47.000Z,3.03
2022-10-31T22:29:17.986Z,2.83
2022-10-31T22:31:50.613Z,3.00
2022-10-31T22:34:23.342Z,2.78
2022-10-31T22:36:57.444Z,2.58
2022-10-31T22:39:25.898Z,3.30
2022-10-31T22:41:54.419Z,3.45
2022-10-31T22:44:23.005Z,2.75
2022-10-31T22:46:51.390Z,2.65
2022-10-31T22:49:19.709Z,2.45
2022-10-31T22:51:51.686Z,2.88
2022-10-31T22:54:20.445Z,2.60
2022-10-31T22:56:48.814Z,2.75
2022-10-31T22:59:17.833Z,2.55
2022-10-31T23:01:46.627Z,2.90
2022-10-31T23:04:16.614Z,2.70
2022-10-31T23:06:45.706Z,2.90
2022-10-31T23:09:18.399Z,2.95
2022-10-31T23:11:46.819Z,2.50
2022-10-31T23:14:18.634Z,2.40
2022-10-31T23:16:49.541Z,2.30
2022-10-31T23:19:19.627Z,2.30
2022-10-31T23:21:56.576Z,2.80
2022-10-31T23:24:34.181Z,2.58
2022-10-31T23:27:10.410Z,2.40
2022-10-31T23:29:42.021Z,2.40
2022-10-31T23:32:12.854Z,2.15
2022-10-31T23:34:41.479Z,2.30
2022-10-31T23:37:10.429Z,2.00
2022-10-31T23:39:40.241Z,2.47
2022-10-31T23:42:08.919Z,2.28
2022-10-31T23:44:37.401Z,2.38
2022-10-31T23:47:06.569Z,2.63
2022-10-31T23:49:34.987Z,2.60
2022-10-31T23:52:03.607Z,2.30
2022-10-31T23:54:32.575Z,2.35
2022-10-31T23:57:02.964Z,2.15
2022-10-31T23:59:31.846Z,2.97
